FD93 weather

Yellow River Airstrip
Holt, Florida, United States

Public forecast

Using degrees Fahrenheit for public forecast. Weather courtesy of forecast.io.

METAR (pilot weather report)

Closest report is Duke Field, 11.8 nm (21.8 km) E. Retrieved 2017/12/15 15:55 UTC (28 minutes ago):

KEGI 151555Z 35009KT 10SM BKN110 10/05 A3014 RMK AO2A SLP208 T00990047 $

TAF (pilot weather forecast)

Forecast is more than 6 hours old.

Closest forecast is Duke Field, 11.8 nm (21.8 km) E. Retrieved 2017/12/15 10:02 UTC (6 hours ago):

TAF KEGI 151000Z 1510/1616 33006KT 9999 SCT100 BKN180 QNH3000INS BECMG 1515/1516 34012KT 9999 SCT090 BKN140 QNH3010INS BECMG 1602/1603 03008KT 9999 SCT060 BKN100 QNH3003INS TX14/1519Z TN07/1512Z LAST NO AMDS AFT 1510 NEXT 1515 FCST BY USAF WX MET TECH